Tuesday, March 19, 2019, 11:20 PM EDT
Back to Local

KGFL, Floyd Bennett Memorial Airport

Location: Queensbury, NY, United States Lat: 43.333
Local Time: 11:20 PM EDT ( 3:20 GMT) Lon: -73.617
Time Zone: US/Eastern Elev: 328 ft

Show me the last for .
Show Decoded

2019-03-19 22:53 METAR KGFL 200253Z AUTO VRB04KT 10SM CLR M03/M08 A3038 RMK AO2 SLP296 T10331078
                 51005 =
2019-03-19 21:53 METAR KGFL 200153Z AUTO 00000KT 10SM CLR M03/M08 A3037 RMK AO2 SLP295 T10281078
                 =
2019-03-19 20:53 METAR KGFL 200053Z AUTO 24004KT 10SM CLR M03/M07 A3037 RMK AO2 SLP293 T10281072
                 =
2019-03-19 19:53 METAR KGFL 192353Z AUTO 24005KT 10SM CLR 02/M09 A3036 RMK AO2 SLP291 T00171089
                 10050 20011 53011 =
2019-03-19 18:53 METAR KGFL 192253Z AUTO 26006KT 10SM FEW085 03/M09 A3035 RMK AO2 SLP287
                 T00331094 =
2019-03-19 17:53 METAR KGFL 192153Z AUTO VRB05G16KT 10SM BKN075 BKN090 05/M10 A3033 RMK AO2
                 SLP279 T00501100 =
2019-03-19 16:53 METAR KGFL 192053Z AUTO 07005KT 10SM BKN080 04/M11 A3033 RMK AO2 SLP278
                 T00391106 56014 =
2019-03-19 15:53 METAR KGFL 191953Z AUTO 04006KT 10SM BKN075 OVC090 04/M11 A3033 RMK AO2 SLP281
                 T00391106 =
2019-03-19 14:53 METAR KGFL 191853Z AUTO VRB06KT 10SM BKN080 03/M10 A3034 RMK AO2 SLP284
                 T00331100 =
2019-03-19 13:53 METAR KGFL 191753Z AUTO 00000KT 10SM FEW070 02/M11 A3037 RMK AO2 SLP293
                 T00221106 10028 21061 58007 =
2019-03-19 12:53 METAR KGFL 191653Z AUTO 07004KT 10SM OVC070 02/M09 A3039 RMK AO2 SLP300
                 T00171094 =
2019-03-19 11:53 METAR KGFL 191553Z AUTO VRB03KT 10SM BKN060 02/M09 A3039 RMK AO2 SLP301
                 T00171094 =
2019-03-19 10:53 METAR KGFL 191453Z AUTO 00000KT 10SM SCT044 01/M09 A3039 RMK AO2 SLP301
                 T00061094 52005 =
2019-03-19 09:53 METAR KGFL 191353Z AUTO 00000KT 10SM CLR M01/M07 A3039 RMK AO2 SLP300 T10061072
                 =
2019-03-19 08:53 METAR KGFL 191253Z AUTO 00000KT 10SM CLR M02/M07 A3038 RMK AO2 SLP296 T10171072
                 =
2019-03-19 07:53 METAR KGFL 191153Z AUTO 00000KT 10SM CLR M06/M09 A3038 RMK AO2 SLP297 I1000
                 I6000 T10611089 11017 21089 53018 =
2019-03-19 06:53 METAR KGFL 191053Z AUTO 00000KT 10SM CLR M08/M09 A3035 RMK AO2 SLP290 T10781094
                 =
2019-03-19 05:53 METAR KGFL 190953Z AUTO 00000KT 10SM CLR M06/M08 A3034 RMK AO2 SLP282 T10611083
                 =
2019-03-19 04:53 METAR KGFL 190853Z AUTO 07005KT 10SM CLR M04/M07 A3032 RMK AO2 SLP276 T10441072
                 53007 =
2019-03-19 03:53 METAR KGFL 190753Z AUTO 00000KT 10SM BKN085 M06/M08 A3031 RMK AO2 SLP273
                 T10611078 =
2019-03-19 02:53 METAR KGFL 190653Z AUTO 00000KT 10SM FEW085 M03/M07 A3031 RMK AO2 SLP272
                 T10331067 =
2019-03-19 01:53 METAR KGFL 190553Z AUTO 20003KT 10SM FEW080 M02/M07 A3030 RMK AO2 SLP269
                 T10221067 11017 21061 53004 =
2019-03-19 00:53 METAR KGFL 190453Z AUTO 20003KT 10SM BKN070 OVC085 M04/M07 A3029 RMK AO2 SLP267
                 T10441072 400331083 =
2019-03-18 23:53 METAR KGFL 190353Z AUTO 00000KT 10SM FEW070 M06/M08 A3029 RMK AO2 SLP265
                 T10561083 =

Support USWX by starting your Amazon purchase here.